DLH733 EDDC-EDDH
Flight info
| Callsign | DLH733 |
|---|---|
| Flight time | 0h 44m |
| Altitude | 28000 |
| Route | OSKAN9E OSKAN M748 RARUP RARUP3D |
| Aircraft | A20N/M-SDE2E3FGHIRWXY/LB1 |
Departure
| Time | 2026-05-01 11:44 |
|---|---|
| Airport | Dresden Airport (EDDC) |
Arrival
| Time | 2026-05-01 12:29 |
|---|---|
| Airport | Hamburg Helmut Schmidt Airport (EDDH) |
| Time | Latitude | Longitude | Altitude | Speed | Heading |
|---|---|---|---|---|---|
| 2026-05-01 11:20 | 51.12600 | 13.76349 | 749 ft | 0 kts | 130° |
| 2026-05-01 11:39 | 51.12601 | 13.76347 | 754 ft | 2 kts | 129° |
| 2026-05-01 11:39 | 51.12614 | 13.76316 | 750 ft | 2 kts | 129° |
| 2026-05-01 11:39 | 51.12631 | 13.76293 | 749 ft | 4 kts | 190° |
| 2026-05-01 11:39 | 51.12648 | 13.76317 | 751 ft | 4 kts | 236° |
| 2026-05-01 11:40 | 51.12658 | 13.76338 | 748 ft | 1 kts | 220° |
| 2026-05-01 11:42 | 51.12639 | 13.76313 | 750 ft | 7 kts | 220° |
| 2026-05-01 11:42 | 51.12576 | 13.76231 | 751 ft | 16 kts | 218° |
| 2026-05-01 11:42 | 51.12556 | 13.76099 | 754 ft | 13 kts | 310° |
| 2026-05-01 11:43 | 51.12623 | 13.75973 | 755 ft | 17 kts | 311° |
| 2026-05-01 11:43 | 51.12685 | 13.75862 | 754 ft | 8 kts | 315° |
| 2026-05-01 11:43 | 51.12740 | 13.75846 | 753 ft | 9 kts | 25° |
| 2026-05-01 11:44 | 51.12991 | 13.76187 | 748 ft | 89 kts | 40° |
| 2026-05-01 11:44 | 51.13652 | 13.77094 | 736 ft | 158 kts | 40° |
| 2026-05-01 11:44 | 51.14531 | 13.78305 | 1232 ft | 179 kts | 38° |
| 2026-05-01 11:44 | 51.15586 | 13.79610 | 1679 ft | 205 kts | 35° |
| 2026-05-01 11:45 | 51.16791 | 13.81038 | 2268 ft | 219 kts | 40° |
| 2026-05-01 11:45 | 51.17914 | 13.82672 | 3158 ft | 229 kts | 43° |
| 2026-05-01 11:45 | 51.19234 | 13.84236 | 3831 ft | 248 kts | 23° |
| 2026-05-01 11:45 | 51.20938 | 13.84709 | 4545 ft | 259 kts | 357° |
| 2026-05-01 11:46 | 51.22765 | 13.84421 | 5487 ft | 264 kts | 356° |
| 2026-05-01 11:46 | 51.24563 | 13.84108 | 6489 ft | 266 kts | 357° |
| 2026-05-01 11:46 | 51.26442 | 13.83783 | 7043 ft | 272 kts | 357° |
| 2026-05-01 11:46 | 51.28321 | 13.83457 | 7285 ft | 273 kts | 356° |
| 2026-05-01 11:47 | 51.30212 | 13.83116 | 7411 ft | 274 kts | 354° |
| 2026-05-01 11:47 | 51.32015 | 13.82187 | 7540 ft | 281 kts | 335° |
| 2026-05-01 11:47 | 51.33605 | 13.80316 | 8129 ft | 288 kts | 321° |
| 2026-05-01 11:47 | 51.35094 | 13.78187 | 9134 ft | 287 kts | 322° |
| 2026-05-01 11:48 | 51.36607 | 13.76066 | 10037 ft | 292 kts | 322° |
| 2026-05-01 11:48 | 51.38154 | 13.73909 | 10800 ft | 301 kts | 322° |
| 2026-05-01 11:48 | 51.39795 | 13.71623 | 11117 ft | 325 kts | 322° |
| 2026-05-01 11:48 | 51.41555 | 13.69160 | 11454 ft | 345 kts | 322° |
| 2026-05-01 11:49 | 51.43377 | 13.66591 | 12170 ft | 351 kts | 322° |
| 2026-05-01 11:49 | 51.45215 | 13.63988 | 12937 ft | 357 kts | 322° |
| 2026-05-01 11:49 | 51.47086 | 13.61335 | 13718 ft | 361 kts | 322° |
| 2026-05-01 11:49 | 51.48986 | 13.58646 | 14449 ft | 366 kts | 323° |
| 2026-05-01 11:50 | 51.50895 | 13.55947 | 15154 ft | 370 kts | 322° |
| 2026-05-01 11:50 | 51.52823 | 13.53217 | 15855 ft | 373 kts | 322° |
| 2026-05-01 11:50 | 51.54750 | 13.50482 | 16606 ft | 374 kts | 322° |
| 2026-05-01 11:50 | 51.56698 | 13.47715 | 17336 ft | 377 kts | 322° |
| 2026-05-01 11:51 | 51.58669 | 13.44913 | 18057 ft | 379 kts | 322° |
| 2026-05-01 11:51 | 51.60641 | 13.42107 | 18751 ft | 382 kts | 322° |
| 2026-05-01 11:51 | 51.62640 | 13.39258 | 19346 ft | 385 kts | 322° |
| 2026-05-01 11:51 | 51.64653 | 13.36387 | 19942 ft | 388 kts | 322° |
| 2026-05-01 11:52 | 51.66668 | 13.33509 | 20527 ft | 391 kts | 322° |
| 2026-05-01 11:52 | 51.68714 | 13.30581 | 21114 ft | 394 kts | 322° |
| 2026-05-01 11:52 | 51.70770 | 13.27631 | 21699 ft | 397 kts | 322° |
| 2026-05-01 11:52 | 51.72813 | 13.24695 | 22264 ft | 400 kts | 322° |
| 2026-05-01 11:53 | 51.74898 | 13.21695 | 22833 ft | 403 kts | 322° |
| 2026-05-01 11:53 | 51.76990 | 13.18679 | 23342 ft | 407 kts | 321° |
| 2026-05-01 11:53 | 51.79102 | 13.15637 | 23856 ft | 411 kts | 321° |
| 2026-05-01 11:53 | 51.81245 | 13.12547 | 24362 ft | 413 kts | 321° |
| 2026-05-01 11:54 | 51.83380 | 13.09463 | 24862 ft | 415 kts | 321° |
| 2026-05-01 11:54 | 51.85537 | 13.06343 | 25332 ft | 417 kts | 321° |
| 2026-05-01 11:54 | 51.87706 | 13.03199 | 25793 ft | 419 kts | 321° |
| 2026-05-01 11:54 | 51.89882 | 13.00043 | 26246 ft | 422 kts | 321° |
| 2026-05-01 11:55 | 51.92070 | 12.96865 | 26690 ft | 424 kts | 321° |
| 2026-05-01 11:55 | 51.94242 | 12.93706 | 27120 ft | 426 kts | 321° |
| 2026-05-01 11:55 | 51.96453 | 12.90484 | 27542 ft | 428 kts | 320° |
| 2026-05-01 11:55 | 51.98676 | 12.87241 | 27954 ft | 430 kts | 320° |
| 2026-05-01 11:56 | 52.00904 | 12.83986 | 28288 ft | 433 kts | 320° |
| 2026-05-01 11:56 | 52.03143 | 12.80712 | 28392 ft | 434 kts | 320° |
| 2026-05-01 11:56 | 52.07635 | 12.74125 | 28404 ft | 434 kts | 320° |
| 2026-05-01 11:57 | 52.12108 | 12.67566 | 28406 ft | 434 kts | 320° |
| 2026-05-01 11:57 | 52.16582 | 12.60958 | 28406 ft | 434 kts | 320° |
| 2026-05-01 11:58 | 52.21054 | 12.54332 | 28406 ft | 434 kts | 320° |
| 2026-05-01 11:59 | 52.27620 | 12.44163 | 28397 ft | 435 kts | 315° |
| 2026-05-01 11:59 | 52.31788 | 12.36949 | 28403 ft | 437 kts | 315° |
| 2026-05-01 12:00 | 52.38492 | 12.26910 | 28407 ft | 435 kts | 320° |
| 2026-05-01 12:01 | 52.45295 | 12.17063 | 28401 ft | 435 kts | 320° |
| 2026-05-01 12:01 | 52.49808 | 12.10528 | 28400 ft | 435 kts | 320° |
| 2026-05-01 12:02 | 52.54341 | 12.03948 | 28395 ft | 436 kts | 320° |
| 2026-05-01 12:02 | 52.58902 | 11.97313 | 28400 ft | 437 kts | 320° |
| 2026-05-01 12:03 | 52.63452 | 11.90686 | 28397 ft | 437 kts | 321° |
| 2026-05-01 12:03 | 52.68261 | 11.84583 | 28397 ft | 435 kts | 324° |
| 2026-05-01 12:04 | 52.73064 | 11.78503 | 28398 ft | 436 kts | 323° |
| 2026-05-01 12:04 | 52.77085 | 11.73398 | 28395 ft | 435 kts | 323° |
| 2026-05-01 12:05 | 52.81867 | 11.67309 | 28398 ft | 435 kts | 323° |
| 2026-05-01 12:05 | 52.89087 | 11.58089 | 28398 ft | 438 kts | 323° |
| 2026-05-01 12:06 | 52.93874 | 11.51952 | 28398 ft | 438 kts | 323° |
| 2026-05-01 12:06 | 52.98687 | 11.45768 | 28398 ft | 438 kts | 323° |
| 2026-05-01 12:07 | 53.03498 | 11.39570 | 28393 ft | 438 kts | 323° |
| 2026-05-01 12:07 | 53.08312 | 11.33361 | 28392 ft | 438 kts | 323° |
| 2026-05-01 12:08 | 53.13169 | 11.27257 | 28393 ft | 437 kts | 326° |
| 2026-05-01 12:08 | 53.18204 | 11.21479 | 28393 ft | 439 kts | 326° |
| 2026-05-01 12:09 | 53.23215 | 11.15686 | 28390 ft | 439 kts | 326° |
| 2026-05-01 12:09 | 53.28233 | 11.09869 | 28387 ft | 438 kts | 326° |
| 2026-05-01 12:10 | 53.35751 | 11.01126 | 28392 ft | 439 kts | 326° |
| 2026-05-01 12:11 | 53.43253 | 10.92364 | 28393 ft | 439 kts | 326° |
| 2026-05-01 12:11 | 53.48249 | 10.86509 | 28320 ft | 442 kts | 326° |
| 2026-05-01 12:12 | 53.50776 | 10.83540 | 27902 ft | 443 kts | 326° |
| 2026-05-01 12:12 | 53.53293 | 10.80570 | 27337 ft | 442 kts | 325° |
| 2026-05-01 12:12 | 53.55792 | 10.77599 | 26773 ft | 437 kts | 325° |
| 2026-05-01 12:12 | 53.58259 | 10.74663 | 26223 ft | 432 kts | 325° |
| 2026-05-01 12:13 | 53.60707 | 10.71755 | 25742 ft | 427 kts | 325° |
| 2026-05-01 12:13 | 53.63083 | 10.68937 | 25287 ft | 421 kts | 325° |
| 2026-05-01 12:13 | 53.65479 | 10.66097 | 24832 ft | 420 kts | 325° |
| 2026-05-01 12:13 | 53.67843 | 10.63303 | 24389 ft | 418 kts | 325° |
| 2026-05-01 12:14 | 53.70224 | 10.60486 | 23960 ft | 416 kts | 325° |
| 2026-05-01 12:14 | 53.72558 | 10.57724 | 23411 ft | 415 kts | 325° |
| 2026-05-01 12:14 | 53.74924 | 10.54923 | 22811 ft | 411 kts | 325° |
| 2026-05-01 12:14 | 53.77256 | 10.52156 | 22224 ft | 408 kts | 325° |
| 2026-05-01 12:15 | 53.79571 | 10.49412 | 21700 ft | 403 kts | 325° |
| 2026-05-01 12:15 | 53.81857 | 10.46736 | 21191 ft | 398 kts | 325° |
| 2026-05-01 12:15 | 53.84147 | 10.44073 | 20429 ft | 401 kts | 325° |
| 2026-05-01 12:15 | 53.86459 | 10.41383 | 19646 ft | 404 kts | 325° |
| 2026-05-01 12:16 | 53.88762 | 10.38704 | 18873 ft | 398 kts | 325° |
| 2026-05-01 12:16 | 53.91019 | 10.36089 | 18051 ft | 393 kts | 325° |
| 2026-05-01 12:16 | 53.93258 | 10.33490 | 17219 ft | 388 kts | 325° |
| 2026-05-01 12:16 | 53.95472 | 10.30922 | 16406 ft | 383 kts | 325° |
| 2026-05-01 12:17 | 53.97662 | 10.28382 | 15616 ft | 379 kts | 325° |
| 2026-05-01 12:17 | 53.99833 | 10.25866 | 14839 ft | 376 kts | 325° |
| 2026-05-01 12:17 | 54.01976 | 10.23342 | 14073 ft | 373 kts | 321° |
| 2026-05-01 12:17 | 54.03722 | 10.20158 | 13240 ft | 367 kts | 300° |
| 2026-05-01 12:18 | 54.04792 | 10.16269 | 12423 ft | 360 kts | 282° |
| 2026-05-01 12:18 | 54.05037 | 10.12097 | 11625 ft | 352 kts | 265° |
| 2026-05-01 12:18 | 54.04911 | 10.07940 | 10856 ft | 350 kts | 264° |
| 2026-05-01 12:18 | 54.04775 | 10.03834 | 10085 ft | 348 kts | 264° |
| 2026-05-01 12:19 | 54.04635 | 9.99759 | 9261 ft | 346 kts | 264° |
| 2026-05-01 12:19 | 54.04489 | 9.95682 | 8451 ft | 343 kts | 264° |
| 2026-05-01 12:19 | 54.04341 | 9.91696 | 7773 ft | 338 kts | 264° |
| 2026-05-01 12:19 | 54.04197 | 9.87833 | 7494 ft | 322 kts | 264° |
| 2026-05-01 12:20 | 54.04031 | 9.84108 | 7267 ft | 306 kts | 259° |
| 2026-05-01 12:20 | 54.03387 | 9.80822 | 7041 ft | 284 kts | 235° |
| 2026-05-01 12:20 | 54.02166 | 9.78336 | 6833 ft | 269 kts | 224° |
| 2026-05-01 12:20 | 54.00864 | 9.76000 | 6605 ft | 273 kts | 224° |
| 2026-05-01 12:21 | 53.99560 | 9.73671 | 6167 ft | 271 kts | 224° |
| 2026-05-01 12:21 | 53.98509 | 9.71023 | 5541 ft | 276 kts | 247° |
| 2026-05-01 12:21 | 53.98202 | 9.67814 | 5008 ft | 273 kts | 263° |
| 2026-05-01 12:21 | 53.97750 | 9.64908 | 5414 ft | 256 kts | 250° |
| 2026-05-01 12:22 | 53.96916 | 9.62172 | 5718 ft | 266 kts | 226° |
| 2026-05-01 12:22 | 53.95424 | 9.60377 | 6002 ft | 263 kts | 198° |
| 2026-05-01 12:22 | 53.93623 | 9.59967 | 6118 ft | 263 kts | 172° |
| 2026-05-01 12:22 | 53.91845 | 9.60681 | 5953 ft | 262 kts | 164° |
| 2026-05-01 12:23 | 53.90115 | 9.61592 | 5535 ft | 255 kts | 152° |
| 2026-05-01 12:23 | 53.88820 | 9.63591 | 5367 ft | 261 kts | 128° |
| 2026-05-01 12:23 | 53.87793 | 9.66154 | 4877 ft | 262 kts | 128° |
| 2026-05-01 12:23 | 53.86698 | 9.68603 | 4235 ft | 261 kts | 128° |
| 2026-05-01 12:24 | 53.85662 | 9.71041 | 3918 ft | 254 kts | 126° |
| 2026-05-01 12:24 | 53.84679 | 9.73563 | 3658 ft | 256 kts | 124° |
| 2026-05-01 12:24 | 53.83742 | 9.75992 | 3399 ft | 254 kts | 124° |
| 2026-05-01 12:24 | 53.82752 | 9.78468 | 3226 ft | 256 kts | 126° |
| 2026-05-01 12:25 | 53.81720 | 9.80958 | 2969 ft | 257 kts | 126° |
| 2026-05-01 12:25 | 53.79324 | 9.85266 | 2309 ft | 253 kts | 143° |
| 2026-05-01 12:25 | 53.77925 | 9.86766 | 2491 ft | 226 kts | 151° |
| 2026-05-01 12:26 | 53.76438 | 9.88068 | 2356 ft | 254 kts | 154° |
| 2026-05-01 12:26 | 53.73393 | 9.90468 | 1789 ft | 223 kts | 153° |
| 2026-05-01 12:26 | 53.72085 | 9.91543 | 1669 ft | 196 kts | 153° |
| 2026-05-01 12:27 | 53.70919 | 9.92534 | 1429 ft | 182 kts | 152° |
| 2026-05-01 12:27 | 53.68656 | 9.94595 | 768 ft | 188 kts | 149° |
| 2026-05-01 12:28 | 53.66706 | 9.96426 | 327 ft | 145 kts | 152° |
| 2026-05-01 12:28 | 53.65875 | 9.97140 | 190 ft | 128 kts | 151° |
| 2026-05-01 12:28 | 53.64574 | 9.98270 | 57 ft | 55 kts | 153° |
| 2026-05-01 12:29 | 53.64287 | 9.98509 | 55 ft | 41 kts | 150° |
| 2026-05-01 12:29 | 53.64092 | 9.98688 | 49 ft | 29 kts | 152° |
| 2026-05-01 12:29 | 53.63841 | 9.99163 | 48 ft | 12 kts | 126° |
| 2026-05-01 12:30 | 53.63710 | 9.99469 | 46 ft | 26 kts | 125° |
| 2026-05-01 12:30 | 53.63625 | 9.99670 | 49 ft | 15 kts | 126° |
| 2026-05-01 12:30 | 53.63609 | 9.99707 | 46 ft | 5 kts | 126° |
| 2026-05-01 12:31 | 53.63562 | 9.99815 | 50 ft | 16 kts | 127° |
| 2026-05-01 12:31 | 53.63494 | 9.99971 | 47 ft | 15 kts | 126° |
| 2026-05-01 12:31 | 53.63437 | 10.00106 | 45 ft | 15 kts | 125° |
| 2026-05-01 12:31 | 53.63376 | 10.00224 | 48 ft | 14 kts | 148° |
| 2026-05-01 12:32 | 53.63299 | 10.00237 | 48 ft | 12 kts | 179° |
| 2026-05-01 12:32 | 53.63203 | 10.00290 | 48 ft | 6 kts | 91° |
| 2026-05-01 12:32 | 53.63204 | 10.00335 | 48 ft | 3 kts | 85° |
| 2026-05-01 12:33 | 53.63206 | 10.00359 | 48 ft | 0 kts | 85° |